createdAt,value
2023-03-27T00:00:15.101Z,89
2023-03-27T00:05:15.097Z,89
2023-03-27T00:10:15.097Z,89
2023-03-27T00:15:15.093Z,88
2023-03-27T00:20:15.100Z,89
2023-03-27T00:25:15.094Z,89
2023-03-27T00:30:15.085Z,88
2023-03-27T00:35:15.108Z,87
2023-03-27T00:40:15.094Z,87
2023-03-27T00:45:15.090Z,87
2023-03-27T00:50:15.268Z,86
2023-03-27T00:55:15.090Z,86
2023-03-27T01:00:15.095Z,86
2023-03-27T01:05:15.093Z,86
2023-03-27T01:10:15.091Z,86
2023-03-27T01:15:15.085Z,87
2023-03-27T01:20:15.125Z,88
2023-03-27T01:25:15.077Z,88
2023-03-27T01:30:15.086Z,89
2023-03-27T01:35:15.108Z,89
2023-03-27T01:40:15.092Z,89
2023-03-27T01:45:15.090Z,89
2023-03-27T01:50:15.092Z,89
2023-03-27T01:55:15.096Z,89
2023-03-27T02:00:17.756Z,88
2023-03-27T02:05:15.224Z,88
2023-03-27T02:10:15.101Z,89
2023-03-27T02:15:22.767Z,89
2023-03-27T02:20:15.098Z,89
2023-03-27T02:25:15.085Z,90
2023-03-27T02:30:15.098Z,89
2023-03-27T02:35:15.084Z,89
2023-03-27T02:40:15.127Z,89
2023-03-27T02:45:15.086Z,89
2023-03-27T02:50:15.099Z,89
2023-03-27T02:55:15.096Z,90
2023-03-27T03:00:15.095Z,89
2023-03-27T03:05:15.092Z,89
2023-03-27T03:10:15.106Z,89
2023-03-27T03:15:15.092Z,88
2023-03-27T03:20:15.106Z,88
2023-03-27T03:25:15.132Z,88
2023-03-27T03:30:16.488Z,88
2023-03-27T03:35:15.101Z,88
2023-03-27T03:40:15.098Z,88
2023-03-27T03:45:15.095Z,88
2023-03-27T03:50:15.100Z,87
2023-03-27T03:55:15.106Z,86
2023-03-27T04:00:15.088Z,86
2023-03-27T04:05:15.096Z,86
2023-03-27T04:10:15.093Z,86
2023-03-27T04:15:15.086Z,86
2023-03-27T04:20:15.091Z,86
2023-03-27T04:25:15.088Z,85
2023-03-27T04:30:15.091Z,85
2023-03-27T04:35:15.124Z,85
2023-03-27T04:40:15.088Z,85
2023-03-27T04:45:15.097Z,85
2023-03-27T04:50:15.105Z,85
2023-03-27T04:55:15.097Z,85
2023-03-27T05:00:15.108Z,85
2023-03-27T05:05:15.097Z,85
2023-03-27T05:10:15.100Z,84
2023-03-27T05:15:15.097Z,84
2023-03-27T05:20:15.097Z,84
2023-03-27T05:25:15.088Z,84
2023-03-27T05:30:15.088Z,84
2023-03-27T05:35:15.088Z,84
2023-03-27T05:40:15.105Z,84
2023-03-27T05:45:15.103Z,84
2023-03-27T05:50:15.091Z,83
2023-03-27T05:55:15.095Z,82
2023-03-27T06:00:15.096Z,81
2023-03-27T06:05:15.086Z,81
2023-03-27T06:10:15.091Z,80
2023-03-27T06:15:15.104Z,80
2023-03-27T06:20:15.201Z,80
2023-03-27T06:25:15.463Z,79
2023-03-27T06:30:15.093Z,79
2023-03-27T06:35:15.107Z,79
2023-03-27T06:40:15.103Z,78
2023-03-27T06:45:15.093Z,77
2023-03-27T06:50:15.122Z,76
2023-03-27T06:55:15.237Z,75
2023-03-27T07:00:15.091Z,75
2023-03-27T07:05:15.117Z,74
2023-03-27T07:10:15.356Z,73
2023-03-27T07:15:15.114Z,72
2023-03-27T07:20:15.092Z,72
2023-03-27T07:25:15.089Z,71
2023-03-27T07:30:15.102Z,71
2023-03-27T07:35:15.124Z,70
2023-03-27T07:40:15.087Z,70
2023-03-27T07:45:15.086Z,69
2023-03-27T07:50:15.102Z,69
2023-03-27T07:55:15.093Z,68
2023-03-27T08:00:15.110Z,68
2023-03-27T08:05:15.136Z,67
2023-03-27T08:10:15.097Z,67
2023-03-27T08:15:15.088Z,67
2023-03-27T08:20:15.113Z,64
2023-03-27T08:25:15.093Z,65
2023-03-27T08:30:16.636Z,65
2023-03-27T08:35:15.102Z,65
2023-03-27T08:40:15.093Z,65
2023-03-27T08:45:15.089Z,65
2023-03-27T08:50:15.106Z,65
2023-03-27T08:55:15.092Z,66
2023-03-27T09:00:15.094Z,66
2023-03-27T09:05:15.100Z,63
2023-03-27T09:10:15.088Z,62
2023-03-27T09:15:15.100Z,62
2023-03-27T09:20:15.089Z,62
2023-03-27T09:25:15.096Z,62
2023-03-27T09:30:15.113Z,63
2023-03-27T09:35:15.092Z,60
2023-03-27T09:40:15.097Z,60
2023-03-27T09:45:15.095Z,59
2023-03-27T09:50:15.105Z,60
2023-03-27T09:55:15.095Z,62
2023-03-27T10:00:15.122Z,62
2023-03-27T10:05:15.094Z,58
2023-03-27T10:10:15.122Z,62
2023-03-27T10:15:15.094Z,71
2023-03-27T10:20:15.135Z,72
2023-03-27T10:25:15.112Z,69
2023-03-27T10:30:15.099Z,65
2023-03-27T10:35:15.101Z,64
2023-03-27T10:40:15.096Z,70
2023-03-27T10:45:15.104Z,69
2023-03-27T10:50:15.099Z,67
2023-03-27T10:55:15.089Z,64
2023-03-27T11:00:15.100Z,60
2023-03-27T11:05:15.088Z,59
2023-03-27T11:10:15.096Z,57
2023-03-27T11:15:15.089Z,55
2023-03-27T11:20:15.098Z,60
2023-03-27T11:25:15.094Z,67
2023-03-27T11:30:15.088Z,66
2023-03-27T11:35:15.088Z,65
2023-03-27T11:40:15.104Z,73
2023-03-27T11:45:15.095Z,78
2023-03-27T11:50:15.094Z,80
2023-03-27T11:55:15.093Z,80
2023-03-27T12:00:15.096Z,81
2023-03-27T12:05:15.095Z,83
2023-03-27T12:10:15.101Z,85
2023-03-27T12:15:15.082Z,85
2023-03-27T12:20:15.106Z,80
2023-03-27T12:25:15.088Z,78
2023-03-27T12:30:15.111Z,76
2023-03-27T12:35:15.090Z,74
2023-03-27T12:40:15.098Z,73
2023-03-27T12:45:15.083Z,71
2023-03-27T12:50:15.086Z,66
2023-03-27T12:55:15.089Z,66
2023-03-27T13:00:15.089Z,62
2023-03-27T13:05:24.466Z,61
2023-03-27T13:10:15.092Z,60
2023-03-27T13:15:15.102Z,58
2023-03-27T13:20:15.097Z,55
2023-03-27T13:25:15.097Z,53
2023-03-27T13:30:15.093Z,51
2023-03-27T13:35:15.096Z,48
2023-03-27T13:40:15.099Z,48
2023-03-27T13:45:15.096Z,48
2023-03-27T13:50:15.204Z,46
2023-03-27T13:55:15.106Z,45
2023-03-27T14:00:15.106Z,46
2023-03-27T14:05:15.098Z,48
2023-03-27T14:10:15.109Z,46
2023-03-27T14:15:15.100Z,46
2023-03-27T14:20:15.117Z,44
2023-03-27T14:25:15.087Z,45
2023-03-27T14:30:15.093Z,47
2023-03-27T14:35:15.088Z,48
2023-03-27T14:40:15.133Z,52
2023-03-27T14:45:15.085Z,55
2023-03-27T14:50:15.095Z,56
2023-03-27T14:55:15.092Z,56
2023-03-27T15:00:15.100Z,52
2023-03-27T15:05:15.095Z,52
2023-03-27T15:10:15.118Z,52
2023-03-27T15:15:15.114Z,53
2023-03-27T15:20:15.090Z,56
2023-03-27T15:25:15.087Z,55
2023-03-27T15:30:15.104Z,54
2023-03-27T15:35:15.089Z,54
2023-03-27T15:40:15.112Z,52
2023-03-27T15:45:15.090Z,52
2023-03-27T15:50:15.100Z,51
2023-03-27T15:55:15.084Z,51
2023-03-27T16:00:15.087Z,50
2023-03-27T16:05:15.076Z,51
2023-03-27T16:10:15.091Z,52
2023-03-27T16:15:15.086Z,54
2023-03-27T16:20:15.085Z,54
2023-03-27T16:25:15.110Z,56
2023-03-27T16:30:15.101Z,56
2023-03-27T16:35:15.094Z,56
2023-03-27T16:40:15.092Z,54
2023-03-27T16:45:15.088Z,54
2023-03-27T16:50:15.096Z,55
2023-03-27T16:55:15.091Z,55
2023-03-27T17:00:15.084Z,54
2023-03-27T17:05:15.160Z,62
2023-03-27T17:10:15.111Z,70
2023-03-27T17:15:15.092Z,75
2023-03-27T17:20:15.091Z,76
2023-03-27T17:25:15.092Z,79
2023-03-27T17:30:19.470Z,81
2023-03-27T17:35:15.094Z,82
2023-03-27T17:40:15.090Z,82
2023-03-27T17:45:15.097Z,81
2023-03-27T17:50:15.124Z,81
2023-03-27T17:55:15.103Z,82
2023-03-27T18:00:15.093Z,83
2023-03-27T18:05:15.917Z,83
2023-03-27T18:10:15.095Z,82
2023-03-27T18:15:15.088Z,81
2023-03-27T18:20:15.098Z,81
2023-03-27T18:25:15.080Z,80
2023-03-27T18:30:15.126Z,87
2023-03-27T18:35:15.093Z,88
2023-03-27T18:40:15.139Z,89
2023-03-27T18:45:15.094Z,88
2023-03-27T18:50:15.089Z,89
2023-03-27T18:55:15.082Z,88
2023-03-27T19:00:15.081Z,85
2023-03-27T19:05:15.089Z,84
2023-03-27T19:10:15.082Z,85
2023-03-27T19:15:20.040Z,85
2023-03-27T19:20:15.097Z,85
2023-03-27T19:25:15.086Z,85
2023-03-27T19:30:15.112Z,86
2023-03-27T19:35:15.099Z,86
2023-03-27T19:40:15.110Z,86
2023-03-27T19:45:15.095Z,86
2023-03-27T19:50:15.100Z,86
2023-03-27T19:55:15.092Z,85
2023-03-27T20:00:15.086Z,85
2023-03-27T20:05:15.096Z,85
2023-03-27T20:10:15.101Z,84
2023-03-27T20:15:15.088Z,85
2023-03-27T20:20:15.081Z,85
2023-03-27T20:25:15.102Z,85
2023-03-27T20:30:15.098Z,85
2023-03-27T20:35:23.378Z,85
2023-03-27T20:40:15.104Z,85
2023-03-27T20:45:15.092Z,85
2023-03-27T20:50:15.104Z,85
2023-03-27T20:55:20.045Z,85
2023-03-27T21:00:15.106Z,85
2023-03-27T21:05:15.085Z,84
2023-03-27T21:10:15.092Z,83
2023-03-27T21:15:15.097Z,83
2023-03-27T21:20:15.099Z,83
2023-03-27T21:25:15.089Z,83
2023-03-27T21:30:16.385Z,83
2023-03-27T21:35:15.098Z,83
2023-03-27T21:40:15.099Z,84
2023-03-27T21:45:15.093Z,84
2023-03-27T21:50:15.119Z,83
2023-03-27T21:55:15.096Z,84
2023-03-27T22:00:15.089Z,83
2023-03-27T22:05:15.088Z,83
2023-03-27T22:10:15.099Z,83
2023-03-27T22:15:15.105Z,83
2023-03-27T22:20:15.094Z,84
2023-03-27T22:25:15.082Z,84
2023-03-27T22:30:15.091Z,84
2023-03-27T22:35:15.101Z,84
2023-03-27T22:40:15.107Z,84
2023-03-27T22:45:15.103Z,84
2023-03-27T22:50:15.093Z,84
2023-03-27T22:55:15.077Z,84
2023-03-27T23:00:15.084Z,84
2023-03-27T23:05:15.097Z,84
2023-03-27T23:10:15.106Z,85
2023-03-27T23:15:15.094Z,85
2023-03-27T23:20:15.097Z,84
2023-03-27T23:25:15.094Z,84
2023-03-27T23:30:15.103Z,84
2023-03-27T23:35:15.094Z,84
2023-03-27T23:40:15.085Z,84
2023-03-27T23:45:15.092Z,85
2023-03-27T23:50:15.091Z,85
2023-03-27T23:55:15.100Z,85
